createdAt,value
2022-11-28T00:00:06.313Z,30.43
2022-11-28T00:02:32.797Z,31.37
2022-11-28T00:04:59.231Z,31.03
2022-11-28T00:07:25.704Z,32.50
2022-11-28T00:09:52.846Z,27.60
2022-11-28T00:12:19.174Z,28.73
2022-11-28T00:14:45.525Z,27.87
2022-11-28T00:17:11.846Z,31.53
2022-11-28T00:19:38.181Z,26.50
2022-11-28T00:22:04.570Z,27.20
2022-11-28T00:24:30.975Z,32.70
2022-11-28T00:26:57.295Z,29.83
2022-11-28T00:29:23.621Z,25.20
2022-11-28T00:31:50.061Z,29.77
2022-11-28T00:34:16.512Z,28.30
2022-11-28T00:36:45.413Z,32.00
2022-11-28T00:39:12.193Z,29.20
2022-11-28T00:41:38.583Z,33.37
2022-11-28T00:44:05.229Z,26.50
2022-11-28T00:46:31.639Z,27.40
2022-11-28T00:48:59.149Z,28.97
2022-11-28T00:51:28.463Z,26.97
2022-11-28T00:53:57.303Z,26.30
2022-11-28T00:56:26.852Z,32.23
2022-11-28T00:58:53.386Z,30.87
2022-11-28T01:01:29.544Z,31.50
2022-11-28T01:03:57.472Z,30.30
2022-11-28T01:06:28.123Z,30.60
2022-11-28T01:08:55.525Z,30.93
2022-11-28T01:11:22.151Z,34.37
2022-11-28T01:13:48.851Z,31.23
2022-11-28T01:16:15.862Z,29.63
2022-11-28T01:18:42.504Z,26.60
2022-11-28T01:21:09.496Z,30.40
2022-11-28T01:23:36.275Z,27.40
2022-11-28T01:26:04.348Z,30.20
2022-11-28T01:28:30.814Z,35.37
2022-11-28T01:30:57.257Z,32.57
2022-11-28T01:33:23.617Z,27.60
2022-11-28T01:35:58.097Z,32.60
2022-11-28T01:38:25.465Z,37.10
2022-11-28T01:40:52.832Z,30.40
2022-11-28T01:43:21.289Z,33.20
2022-11-28T01:45:47.962Z,32.57
2022-11-28T01:48:18.131Z,30.93
2022-11-28T01:50:47.739Z,30.30
2022-11-28T01:53:14.563Z,32.90
2022-11-28T01:55:52.373Z,31.23
2022-11-28T01:58:18.861Z,30.90
2022-11-28T02:00:46.524Z,33.03
2022-11-28T02:03:20.329Z,36.33
2022-11-28T02:05:49.985Z,37.57
2022-11-28T02:08:16.346Z,39.23
2022-11-28T02:11:18.412Z,35.13
2022-11-28T02:14:05.464Z,32.13
2022-11-28T02:16:43.168Z,29.10
2022-11-28T02:19:47.101Z,27.20
2022-11-28T02:22:38.699Z,30.23
2022-11-28T02:25:47.430Z,27.27
2022-11-28T02:28:30.790Z,27.63
2022-11-28T02:31:33.481Z,27.37
2022-11-28T02:34:08.386Z,28.23
2022-11-28T02:36:46.090Z,32.27
2022-11-28T02:39:31.769Z,30.40
2022-11-28T02:42:24.533Z,27.30
2022-11-28T02:45:13.792Z,29.40
2022-11-28T02:47:53.836Z,28.40
2022-11-28T02:50:32.330Z,27.97
2022-11-28T02:53:14.493Z,30.80
2022-11-28T02:55:42.872Z,26.93
2022-11-28T02:58:10.713Z,33.60
2022-11-28T03:00:39.783Z,28.43
2022-11-28T03:03:21.390Z,28.87
2022-11-28T03:06:18.742Z,33.43
2022-11-28T03:08:59.062Z,30.47
2022-11-28T03:11:47.486Z,29.67
2022-11-28T03:14:24.146Z,29.17
2022-11-28T03:17:19.704Z,24.57
2022-11-28T03:20:16.817Z,31.23
2022-11-28T03:23:04.603Z,39.23
2022-11-28T03:25:47.521Z,29.83
2022-11-28T03:28:26.085Z,27.97
2022-11-28T03:31:01.880Z,27.80
2022-11-28T03:33:33.265Z,27.63
2022-11-28T03:36:12.517Z,29.50
2022-11-28T03:38:42.849Z,32.53
2022-11-28T03:41:18.930Z,28.37
2022-11-28T03:43:52.139Z,28.70
2022-11-28T03:46:23.382Z,30.83
2022-11-28T03:48:54.490Z,35.03
2022-11-28T03:51:28.955Z,30.67
2022-11-28T03:54:10.683Z,29.73
2022-11-28T03:56:37.357Z,30.83
2022-11-28T03:59:16.905Z,36.73
2022-11-28T04:02:11.890Z,26.80
2022-11-28T04:04:53.313Z,30.07
2022-11-28T04:07:28.763Z,28.60
2022-11-28T04:10:13.817Z,35.30
2022-11-28T04:13:15.524Z,32.50
2022-11-28T04:15:59.211Z,36.13
2022-11-28T04:18:47.865Z,36.80
2022-11-28T04:21:29.425Z,28.77
2022-11-28T04:24:01.257Z,33.80
2022-11-28T04:26:33.086Z,28.63
2022-11-28T04:29:02.427Z,38.27
2022-11-28T04:31:31.098Z,35.90
2022-11-28T04:34:02.342Z,36.17
2022-11-28T04:36:30.289Z,31.20
2022-11-28T04:38:59.537Z,32.27
2022-11-28T04:41:40.417Z,31.10
2022-11-28T04:44:18.122Z,38.27
2022-11-28T04:46:55.497Z,28.80
2022-11-28T04:49:23.537Z,35.50
2022-11-28T04:52:17.773Z,29.77
2022-11-28T04:55:03.870Z,28.77
2022-11-28T04:57:35.356Z,35.67
2022-11-28T05:00:04.525Z,32.90
2022-11-28T05:02:32.272Z,29.90
2022-11-28T05:04:59.587Z,30.63
2022-11-28T05:07:26.029Z,35.80
2022-11-28T05:09:52.460Z,33.27
2022-11-28T05:12:18.798Z,30.37
2022-11-28T05:14:45.144Z,34.20
2022-11-28T05:17:13.105Z,29.87
2022-11-28T05:19:39.609Z,31.53
2022-11-28T05:22:06.405Z,32.33
2022-11-28T05:24:32.737Z,31.00
2022-11-28T05:26:59.247Z,32.97
2022-11-28T05:29:25.819Z,41.17
2022-11-28T05:31:52.244Z,36.13
2022-11-28T05:34:18.631Z,33.70
2022-11-28T05:36:45.077Z,35.00
2022-11-28T05:39:11.409Z,36.63
2022-11-28T05:41:37.740Z,40.07
2022-11-28T05:44:04.124Z,35.00
2022-11-28T05:46:30.504Z,33.93
2022-11-28T05:48:56.898Z,35.67
2022-11-28T05:51:23.231Z,33.20
2022-11-28T05:53:49.663Z,35.93
2022-11-28T05:56:19.167Z,38.20
2022-11-28T05:58:45.992Z,31.07
2022-11-28T06:01:18.573Z,29.23
2022-11-28T06:03:45.609Z,38.63
2022-11-28T06:06:17.512Z,42.43
2022-11-28T06:08:44.671Z,37.00
2022-11-28T06:11:12.059Z,33.43
2022-11-28T06:13:38.561Z,38.73
2022-11-28T06:16:10.151Z,36.20
2022-11-28T06:18:37.046Z,33.30
2022-11-28T06:21:04.857Z,37.43
2022-11-28T06:23:32.872Z,37.47
2022-11-28T06:26:07.897Z,32.97
2022-11-28T06:28:34.930Z,41.07
2022-11-28T06:31:02.132Z,41.63
2022-11-28T06:33:28.917Z,42.47
2022-11-28T06:36:02.302Z,36.90
2022-11-28T06:38:29.037Z,39.60
2022-11-28T06:41:02.482Z,38.80
2022-11-28T06:43:29.612Z,34.57
2022-11-28T06:45:56.672Z,35.43
2022-11-28T06:48:23.970Z,39.00
2022-11-28T06:50:51.159Z,33.77
2022-11-28T06:53:18.257Z,36.97
2022-11-28T06:55:45.645Z,36.00
2022-11-28T06:58:12.088Z,40.03
2022-11-28T07:00:39.142Z,45.00
2022-11-28T07:03:05.477Z,36.97
2022-11-28T07:05:31.968Z,44.87
2022-11-28T07:07:58.567Z,43.40
2022-11-28T07:10:25.437Z,43.40
2022-11-28T07:13:04.906Z,42.83
2022-11-28T07:15:32.000Z,43.90
2022-11-28T07:17:58.334Z,38.53
2022-11-28T07:20:24.687Z,39.07
2022-11-28T07:22:51.073Z,43.33
2022-11-28T07:25:17.824Z,43.00
2022-11-28T07:27:44.242Z,43.53
2022-11-28T07:30:11.098Z,37.20
2022-11-28T07:32:41.146Z,37.13
2022-11-28T07:35:08.774Z,39.93
2022-11-28T07:37:35.608Z,42.63
2022-11-28T07:40:02.205Z,37.37
2022-11-28T07:42:28.545Z,34.43
2022-11-28T07:44:54.905Z,38.10
2022-11-28T07:47:22.101Z,39.10
2022-11-28T07:49:48.440Z,36.77
2022-11-28T07:52:15.225Z,40.30
2022-11-28T07:54:41.704Z,35.33
2022-11-28T07:57:12.523Z,33.80
2022-11-28T07:59:39.690Z,40.80
2022-11-28T08:02:07.358Z,36.20
2022-11-28T08:04:33.799Z,48.33
2022-11-28T08:07:00.187Z,57.10
2022-11-28T08:09:26.754Z,43.73
2022-11-28T08:11:53.097Z,59.20
2022-11-28T08:14:20.403Z,41.57
2022-11-28T08:16:46.820Z,53.43
2022-11-28T08:19:13.520Z,44.47
2022-11-28T08:21:40.033Z,43.87
2022-11-28T08:24:07.959Z,48.30
2022-11-28T08:26:34.894Z,37.73
2022-11-28T08:29:02.197Z,38.33
2022-11-28T08:31:34.277Z,34.73
2022-11-28T08:34:02.722Z,54.07
2022-11-28T08:36:29.603Z,42.33
2022-11-28T08:39:22.256Z,33.43
2022-11-28T08:41:42.716Z,36.00
2022-11-28T08:44:09.090Z,40.30
2022-11-28T08:46:36.214Z,36.23
2022-11-28T08:49:04.595Z,38.83
2022-11-28T08:51:31.653Z,46.70
2022-11-28T08:53:59.753Z,37.93
2022-11-28T08:56:27.075Z,36.13
2022-11-28T08:58:53.790Z,36.13
2022-11-28T09:01:22.649Z,39.03
2022-11-28T09:03:49.629Z,43.60
2022-11-28T09:06:17.150Z,42.70
2022-11-28T09:08:43.956Z,41.97
2022-11-28T09:11:12.548Z,39.33
2022-11-28T09:13:39.392Z,40.87
2022-11-28T09:16:06.062Z,37.87
2022-11-28T09:18:32.474Z,36.70
2022-11-28T09:21:11.434Z,38.57
2022-11-28T09:23:40.778Z,38.53
2022-11-28T09:26:12.150Z,36.17
2022-11-28T09:28:38.714Z,48.60
2022-11-28T09:31:06.191Z,44.37
2022-11-28T09:33:33.112Z,43.70
2022-11-28T09:36:04.575Z,38.87
2022-11-28T09:38:30.876Z,41.10
2022-11-28T09:40:57.265Z,37.70
2022-11-28T09:43:31.568Z,39.60
2022-11-28T09:46:00.276Z,36.83
2022-11-28T09:48:32.661Z,41.40
2022-11-28T09:51:19.245Z,43.60
2022-11-28T09:54:14.250Z,38.90
2022-11-28T09:56:41.105Z,44.43
2022-11-28T09:59:22.805Z,43.67
2022-11-28T10:02:16.383Z,37.93
2022-11-28T10:05:33.886Z,34.60
2022-11-28T10:08:18.685Z,40.80
2022-11-28T10:11:16.931Z,40.80
2022-11-28T10:14:11.110Z,34.40
2022-11-28T10:16:40.361Z,38.87
2022-11-28T10:19:31.715Z,42.90
2022-11-28T10:22:02.811Z,37.70
2022-11-28T10:24:47.237Z,43.10
2022-11-28T10:27:15.743Z,35.80
2022-11-28T10:29:57.460Z,38.70
2022-11-28T10:32:37.742Z,35.63
2022-11-28T10:35:26.753Z,38.50
2022-11-28T10:37:54.657Z,34.50
2022-11-28T10:40:44.158Z,37.30
2022-11-28T10:43:25.112Z,41.70
2022-11-28T10:46:06.688Z,38.37
2022-11-28T10:48:59.188Z,32.50
2022-11-28T10:51:40.790Z,33.40
2022-11-28T10:54:38.710Z,35.90
2022-11-28T10:57:20.294Z,37.00
2022-11-28T10:59:55.942Z,31.47
2022-11-28T11:02:33.830Z,38.17
2022-11-28T11:05:00.519Z,33.30
2022-11-28T11:10:12.144Z,33.03
2022-11-28T11:12:38.950Z,45.17
2022-11-28T11:15:36.091Z,25.87
2022-11-28T11:18:36.077Z,31.83
2022-11-28T11:21:21.861Z,31.80
2022-11-28T11:23:49.785Z,37.47
2022-11-28T11:26:27.445Z,36.77
2022-11-28T11:28:54.833Z,31.60
2022-11-28T11:31:27.762Z,31.73
2022-11-28T11:34:03.290Z,32.40
2022-11-28T11:36:32.653Z,30.37
2022-11-28T11:39:07.197Z,30.27
2022-11-28T11:41:34.439Z,29.43
2022-11-28T11:44:20.305Z,34.33
2022-11-28T11:46:54.463Z,31.70
2022-11-28T11:49:33.504Z,30.83
2022-11-28T11:52:04.258Z,30.10
2022-11-28T11:54:31.081Z,29.63
2022-11-28T11:57:24.903Z,33.67
2022-11-28T11:59:51.356Z,33.43
2022-11-28T12:02:55.588Z,30.43
2022-11-28T12:05:52.352Z,30.80
2022-11-28T12:08:38.004Z,41.37
2022-11-28T12:11:21.808Z,28.40
2022-11-28T12:13:49.622Z,34.13
2022-11-28T12:16:41.476Z,33.43
2022-11-28T12:19:26.315Z,33.47
2022-11-28T12:22:25.251Z,35.93
2022-11-28T12:25:08.661Z,34.77
2022-11-28T12:27:46.767Z,36.70
2022-11-28T12:30:25.329Z,37.40
2022-11-28T12:33:24.241Z,37.60
2022-11-28T12:36:19.098Z,37.20
2022-11-28T12:38:48.387Z,33.60
2022-11-28T12:41:33.046Z,38.47
2022-11-28T12:44:31.543Z,31.87
2022-11-28T12:47:18.457Z,37.93
2022-11-28T12:50:21.277Z,34.17
2022-11-28T12:53:00.267Z,35.30
2022-11-28T12:55:36.879Z,36.13
2022-11-28T12:58:24.256Z,31.33
2022-11-28T13:01:14.301Z,35.20
2022-11-28T13:03:55.894Z,34.73
2022-11-28T13:06:51.375Z,33.63
2022-11-28T13:09:28.756Z,29.00
2022-11-28T13:12:05.963Z,33.20
2022-11-28T13:14:56.371Z,31.50
2022-11-28T13:17:50.383Z,36.80
2022-11-28T13:20:45.406Z,33.93
2022-11-28T13:23:28.486Z,27.97
2022-11-28T13:26:18.137Z,39.97
2022-11-28T13:29:27.070Z,32.27
2022-11-28T13:32:02.716Z,29.30
2022-11-28T13:34:30.976Z,34.00
2022-11-28T13:40:07.675Z,38.70
2022-11-28T13:43:07.994Z,31.00
2022-11-28T13:45:40.343Z,26.63
2022-11-28T13:49:13.075Z,31.97
2022-11-28T13:51:30.541Z,33.17
2022-11-28T13:54:22.997Z,28.70
2022-11-28T13:57:27.051Z,27.17
2022-11-28T14:00:06.149Z,27.77
2022-11-28T14:02:52.472Z,31.77
2022-11-28T14:05:32.994Z,32.20
2022-11-28T14:08:00.837Z,38.70
2022-11-28T14:10:37.123Z,31.50
2022-11-28T14:13:28.059Z,40.53
2022-11-28T14:16:20.215Z,26.83
2022-11-28T14:18:57.618Z,39.97
2022-11-28T14:21:31.285Z,28.43
2022-11-28T14:24:12.406Z,27.77
2022-11-28T14:26:42.901Z,34.03
2022-11-28T14:29:23.531Z,30.17
2022-11-28T14:32:21.915Z,41.93
2022-11-28T14:34:43.797Z,39.77
2022-11-28T14:37:19.403Z,41.00
2022-11-28T14:39:49.769Z,35.90
2022-11-28T14:42:36.739Z,30.27
2022-11-28T14:45:42.754Z,30.67
2022-11-28T14:48:17.505Z,37.00
2022-11-28T14:50:48.987Z,31.53
2022-11-28T14:53:33.595Z,35.57
2022-11-28T14:56:15.691Z,28.50
2022-11-28T14:58:55.082Z,29.60
2022-11-28T15:01:38.330Z,28.20
2022-11-28T15:04:07.521Z,29.30
2022-11-28T15:06:38.445Z,32.83
2022-11-28T15:09:16.056Z,32.53
2022-11-28T15:12:08.159Z,34.13
2022-11-28T15:14:35.605Z,41.70
2022-11-28T15:17:05.373Z,32.80
2022-11-28T15:19:38.948Z,27.10
2022-11-28T15:22:05.838Z,21.80
2022-11-28T15:24:38.304Z,26.30
2022-11-28T15:27:07.662Z,30.40
2022-11-28T15:29:36.149Z,18.10
2022-11-28T15:32:03.344Z,19.33
2022-11-28T15:34:35.210Z,28.37
2022-11-28T15:37:05.189Z,24.43
2022-11-28T15:39:39.763Z,28.10
2022-11-28T15:42:15.826Z,25.47
2022-11-28T15:44:43.135Z,29.37
2022-11-28T15:47:21.391Z,25.57
2022-11-28T15:50:22.265Z,27.90
2022-11-28T15:53:04.201Z,26.87
2022-11-28T15:55:32.835Z,24.90
2022-11-28T15:58:20.925Z,26.97
2022-11-28T16:01:10.694Z,17.80
2022-11-28T16:03:54.097Z,25.83
2022-11-28T16:06:23.099Z,24.10
2022-11-28T16:08:58.165Z,17.37
2022-11-28T16:11:27.681Z,20.87
2022-11-28T16:13:57.499Z,13.33
2022-11-28T16:16:33.364Z,17.80
2022-11-28T16:19:08.177Z,17.80
2022-11-28T16:21:50.724Z,16.53
2022-11-28T16:24:25.272Z,11.13
2022-11-28T16:27:04.568Z,18.20
2022-11-28T16:29:36.173Z,13.17
2022-11-28T16:32:21.613Z,9.73
2022-11-28T16:34:53.652Z,12.20
2022-11-28T16:37:26.692Z,10.20
2022-11-28T16:40:21.643Z,10.50
2022-11-28T16:42:55.272Z,14.40
2022-11-28T16:45:24.589Z,10.30
2022-11-28T16:48:08.771Z,14.73
2022-11-28T16:50:37.132Z,14.33
2022-11-28T16:53:05.102Z,13.03
2022-11-28T16:55:34.725Z,16.20
2022-11-28T16:58:15.099Z,22.70
2022-11-28T17:00:51.742Z,10.87
2022-11-28T17:03:50.134Z,14.13
2022-11-28T17:06:23.088Z,15.00
2022-11-28T17:08:50.421Z,10.97
2022-11-28T17:11:19.998Z,14.63
2022-11-28T17:13:46.674Z,15.77
2022-11-28T17:16:19.941Z,14.53
2022-11-28T17:18:47.337Z,12.53
2022-11-28T17:21:16.585Z,12.40
2022-11-28T17:23:43.235Z,15.60
2022-11-28T17:26:11.098Z,11.30
2022-11-28T17:28:38.290Z,9.23
2022-11-28T17:31:05.149Z,17.50
2022-11-28T17:33:31.791Z,13.23
2022-11-28T17:36:03.881Z,12.67
2022-11-28T17:38:32.958Z,17.80
2022-11-28T17:41:01.935Z,13.97
2022-11-28T17:43:28.705Z,14.80
2022-11-28T17:45:55.195Z,11.70
2022-11-28T17:48:21.594Z,12.90
2022-11-28T17:50:49.786Z,11.20
2022-11-28T17:53:18.990Z,14.10
2022-11-28T17:55:47.178Z,17.87
2022-11-28T17:58:17.200Z,10.90
2022-11-28T18:00:44.091Z,10.50
2022-11-28T18:03:14.381Z,16.43
2022-11-28T18:05:43.695Z,14.60
2022-11-28T18:08:10.463Z,12.97
2022-11-28T18:10:37.084Z,19.80
2022-11-28T18:13:04.472Z,18.50
2022-11-28T18:15:32.547Z,15.43
2022-11-28T18:17:59.354Z,13.70
2022-11-28T18:20:28.748Z,15.63
2022-11-28T18:22:56.488Z,22.07
2022-11-28T18:25:24.022Z,12.63
2022-11-28T18:27:50.582Z,19.07
2022-11-28T18:30:17.474Z,18.03
2022-11-28T18:32:44.120Z,12.97
2022-11-28T18:35:11.571Z,16.50
2022-11-28T18:37:38.906Z,13.63
2022-11-28T18:40:09.113Z,15.10
2022-11-28T18:42:36.162Z,13.30
2022-11-28T18:45:02.667Z,12.37
2022-11-28T18:47:34.833Z,13.00
2022-11-28T18:50:01.373Z,14.30
2022-11-28T18:52:27.950Z,16.97
2022-11-28T18:54:54.310Z,17.30
2022-11-28T18:57:20.987Z,19.00
2022-11-28T18:59:54.343Z,14.67
2022-11-28T19:02:23.770Z,20.17
2022-11-28T19:04:50.203Z,17.53
2022-11-28T19:07:16.662Z,10.83
2022-11-28T19:09:44.951Z,15.47
2022-11-28T19:12:11.841Z,16.73
2022-11-28T19:14:38.396Z,14.70
2022-11-28T19:17:05.459Z,12.77
2022-11-28T19:19:33.779Z,17.93
2022-11-28T19:22:00.129Z,16.43
2022-11-28T19:24:26.759Z,23.00
2022-11-28T19:26:53.198Z,15.33
2022-11-28T19:29:19.629Z,17.37
2022-11-28T19:31:48.517Z,21.10
2022-11-28T19:34:17.430Z,19.57
2022-11-28T19:36:49.982Z,18.00
2022-11-28T19:39:24.124Z,19.20
2022-11-28T19:41:52.987Z,16.93
2022-11-28T19:44:21.091Z,22.93
2022-11-28T19:46:47.931Z,22.83
2022-11-28T19:49:21.017Z,21.83
2022-11-28T19:51:48.231Z,24.23
2022-11-28T19:54:15.782Z,21.43
2022-11-28T19:56:42.364Z,22.30
2022-11-28T19:59:10.476Z,16.17
2022-11-28T20:01:38.645Z,22.40
2022-11-28T20:04:05.192Z,16.83
2022-11-28T20:08:10.522Z,22.77
2022-11-28T20:10:38.737Z,24.87
2022-11-28T20:13:06.372Z,18.97
2022-11-28T20:15:36.862Z,21.40
2022-11-28T20:18:03.542Z,16.60
2022-11-28T20:20:30.069Z,17.83
2022-11-28T20:22:57.671Z,17.53
2022-11-28T20:25:24.063Z,19.10
2022-11-28T20:27:50.407Z,27.13
2022-11-28T20:30:17.392Z,25.73
2022-11-28T20:32:43.919Z,20.40
2022-11-28T20:35:10.376Z,18.53
2022-11-28T20:37:39.044Z,21.23
2022-11-28T20:40:07.699Z,19.80
2022-11-28T20:42:39.587Z,19.47
2022-11-28T20:45:07.165Z,19.93
2022-11-28T20:47:37.514Z,28.93
2022-11-28T20:50:07.085Z,23.20
2022-11-28T20:52:33.718Z,20.00
2022-11-28T20:55:00.277Z,20.60
2022-11-28T20:57:27.037Z,15.93
2022-11-28T20:59:57.375Z,21.00
2022-11-28T21:02:23.883Z,22.47
2022-11-28T21:04:50.333Z,23.03
2022-11-28T21:07:17.006Z,28.60
2022-11-28T21:09:43.866Z,28.80
2022-11-28T21:12:10.504Z,31.60
2022-11-28T21:14:36.929Z,34.50
2022-11-28T21:17:03.511Z,23.33
2022-11-28T21:19:29.859Z,21.70
2022-11-28T21:21:56.390Z,21.90
2022-11-28T21:24:22.811Z,20.83
2022-11-28T21:26:53.548Z,18.50
2022-11-28T21:29:22.390Z,17.60
2022-11-28T21:31:48.804Z,24.50
2022-11-28T21:34:16.859Z,22.90
2022-11-28T21:36:43.755Z,17.40
2022-11-28T21:39:14.000Z,19.33
2022-11-28T21:41:40.676Z,16.63
2022-11-28T21:44:07.180Z,17.73
2022-11-28T21:46:33.756Z,15.70
2022-11-28T21:49:00.346Z,17.57
2022-11-28T21:51:28.764Z,15.43
2022-11-28T21:53:57.202Z,20.47
2022-11-28T21:56:23.926Z,26.30
2022-11-28T21:58:50.312Z,21.87
2022-11-28T22:01:16.916Z,18.63
2022-11-28T22:03:43.738Z,18.73
2022-11-28T22:06:16.840Z,19.17
2022-11-28T22:08:43.960Z,16.97
2022-11-28T22:11:13.063Z,16.50
2022-11-28T22:13:42.052Z,29.97
2022-11-28T22:16:20.658Z,17.70
2022-11-28T22:18:48.609Z,16.40
2022-11-28T22:24:02.701Z,19.47
2022-11-28T22:26:29.092Z,19.33
2022-11-28T22:28:55.572Z,17.50
2022-11-28T22:31:22.520Z,19.60
2022-11-28T22:33:50.241Z,18.13
2022-11-28T22:36:19.102Z,20.50
2022-11-28T22:38:47.484Z,17.10
2022-11-28T22:41:24.780Z,20.27
2022-11-28T22:43:56.533Z,18.60
2022-11-28T22:46:22.970Z,18.93
2022-11-28T22:48:50.441Z,17.03
2022-11-28T22:51:20.969Z,16.40
2022-11-28T22:53:47.481Z,18.83
2022-11-28T22:56:15.525Z,21.17
2022-11-28T22:58:43.878Z,19.20
2022-11-28T23:01:22.106Z,15.63
2022-11-28T23:03:48.738Z,16.33
2022-11-28T23:06:18.662Z,28.33
2022-11-28T23:08:45.334Z,22.57
2022-11-28T23:11:17.533Z,23.47
2022-11-28T23:13:44.803Z,23.27
2022-11-28T23:16:20.182Z,19.53
2022-11-28T23:18:49.202Z,21.17
2022-11-28T23:21:17.726Z,21.23
2022-11-28T23:23:45.650Z,20.80
2022-11-28T23:26:14.459Z,18.53
2022-11-28T23:28:41.627Z,20.50
2022-11-28T23:31:11.521Z,20.70
2022-11-28T23:33:38.340Z,22.00
2022-11-28T23:36:37.008Z,19.20
2022-11-28T23:39:21.719Z,18.40
2022-11-28T23:41:49.001Z,24.90
2022-11-28T23:44:17.269Z,20.47
2022-11-28T23:46:44.232Z,19.10
2022-11-28T23:49:11.556Z,18.70
2022-11-28T23:51:40.170Z,20.30
2022-11-28T23:54:07.985Z,24.10
2022-11-28T23:56:36.182Z,22.07
2022-11-28T23:59:04.640Z,25.00
